Time;durP1;ratioP1;P1;durP2;ratioP2;P2;SDS_P1;SDS_P2;PMS_P1;PMS_P2;Temp;Humidity;BMP_temperature;BMP_pressure;BME280_temperature;BME280_humidity;BME280_pressure;Samples;Min_cycle;Max_cycle;Signal;HPM_P1;HPM_P2
2022/03/26 00:00:23;;;;;;;48.75;21.73;;;6.30;73.50;;;;;;5074181;28;20222;-76
2022/03/26 00:02:50;;;;;;;44.75;17.52;;;6.10;74.70;;;;;;5074045;28;20126;-78
2022/03/26 00:05:17;;;;;;;34.45;18.35;;;6.10;75.50;;;;;;5074149;28;20028;-74
2022/03/26 00:07:44;;;;;;;39.10;18.35;;;6.00;76.10;;;;;;5073670;28;20025;-74
2022/03/26 00:10:10;;;;;;;37.83;18.48;;;6.00;77.70;;;;;;5073734;28;20036;-75
2022/03/26 00:12:36;;;;;;;40.97;19.08;;;5.90;79.20;;;;;;5073425;28;20033;-74
2022/03/26 00:15:04;;;;;;;41.63;19.45;;;5.90;80.00;;;;;;5073497;28;20043;-77
2022/03/26 00:17:30;;;;;;;50.05;18.98;;;5.90;81.00;;;;;;5055757;28;20024;-74
2022/03/26 00:19:56;;;;;;;41.80;18.75;;;5.90;82.60;;;;;;5073491;28;20020;-74
2022/03/26 00:22:22;;;;;;;46.47;18.83;;;5.90;83.80;;;;;;5080805;28;20068;-74
2022/03/26 00:24:48;;;;;;;43.33;18.65;;;5.90;84.70;;;;;;5083123;28;20050;-75
2022/03/26 00:27:15;;;;;;;38.72;19.20;;;5.90;85.70;;;;;;5064380;28;20020;-73
2022/03/26 00:29:41;;;;;;;43.13;19.80;;;5.90;86.60;;;;;;5081460;28;20526;-74
2022/03/26 00:32:08;;;;;;;43.75;21.27;;;5.90;88.60;;;;;;5081241;28;20071;-76
2022/03/26 00:34:34;;;;;;;46.63;19.67;;;5.90;90.00;;;;;;5064306;28;20055;-74
2022/03/26 00:37:00;;;;;;;48.10;18.20;;;5.80;91.10;;;;;;5082955;28;20047;-74
2022/03/26 00:39:27;;;;;;;45.45;18.00;;;5.80;91.90;;;;;;5081714;28;20070;-73
2022/03/26 00:41:52;;;;;;;38.75;18.42;;;5.70;93.60;;;;;;5082697;28;20028;-75
2022/03/26 00:44:20;;;;;;;37.53;18.48;;;5.80;93.70;;;;;;5083012;28;20023;-74
2022/03/26 00:46:46;;;;;;;41.70;18.13;;;5.80;94.40;;;;;;5081102;28;20016;-75
2022/03/26 00:49:13;;;;;;;78.40;33.15;;;5.80;95.30;;;;;;5082256;28;20028;-75
2022/03/26 00:51:39;;;;;;;83.20;34.33;;;5.80;95.20;;;;;;5082879;28;20043;-76
2022/03/26 00:54:08;;;;;;;64.03;28.58;;;5.80;95.20;;;;;;5081220;28;20035;-75
2022/03/26 00:56:37;;;;;;;70.35;29.27;;;5.70;96.00;;;;;;5064151;28;20020;-73
2022/03/26 00:59:04;;;;;;;61.10;26.50;;;5.70;98.10;;;;;;5082903;28;20047;-73
2022/03/26 01:01:31;;;;;;;57.83;23.80;;;5.70;98.50;;;;;;5081376;28;20028;-76
2022/03/26 01:03:58;;;;;;;49.97;23.50;;;5.70;98.80;;;;;;5081437;28;20073;-75
2022/03/26 01:06:23;;;;;;;51.58;21.98;;;5.60;99.20;;;;;;5083098;28;20028;-75
2022/03/26 01:08:49;;;;;;;73.38;31.45;;;5.70;99.10;;;;;;5081317;28;20021;-74
2022/03/26 01:11:17;;;;;;;66.65;29.73;;;5.60;99.90;;;;;;5082087;28;20077;-75
2022/03/26 01:13:43;;;;;;;68.57;31.63;;;5.70;99.90;;;;;;5083312;28;20020;-75
2022/03/26 01:16:09;;;;;;;53.25;25.35;;;5.60;99.90;;;;;;5081153;28;20029;-76
2022/03/26 01:18:36;;;;;;;69.00;31.27;;;5.60;99.90;;;;;;5082118;28;20024;-75
2022/03/26 01:21:03;;;;;;;62.58;29.00;;;5.60;99.90;;;;;;5082612;28;20021;-76
2022/03/26 01:23:29;;;;;;;60.88;27.27;;;5.60;99.90;;;;;;5081124;28;20021;-74
2022/03/26 01:25:55;;;;;;;54.92;24.42;;;5.50;99.90;;;;;;5085859;28;20024;-75
2022/03/26 01:28:21;;;;;;;52.65;22.75;;;5.60;99.90;;;;;;5086565;28;20081;-75
2022/03/26 01:30:47;;;;;;;47.08;22.70;;;5.50;99.90;;;;;;5084616;28;20044;-75
2022/03/26 01:33:13;;;;;;;64.40;28.75;;;5.50;99.90;;;;;;5067845;28;20437;-76
2022/03/26 01:35:39;;;;;;;63.47;29.73;;;5.50;99.90;;;;;;5086423;28;20090;-73
2022/03/26 01:38:06;;;;;;;106.93;41.90;;;5.50;99.90;;;;;;5084733;28;20016;-75
2022/03/26 01:40:33;;;;;;;122.28;49.00;;;5.50;99.90;;;;;;5085738;28;20026;-74
2022/03/26 01:42:59;;;;;;;113.38;45.13;;;5.50;99.90;;;;;;5065935;28;20064;-76
2022/03/26 01:45:27;;;;;;;110.28;44.80;;;5.50;99.90;;;;;;5086423;28;20034;-78
2022/03/26 01:47:53;;;;;;;109.57;43.13;;;5.60;99.90;;;;;;5084843;28;20017;-75
2022/03/26 01:50:19;;;;;;;112.32;44.83;;;5.60;99.90;;;;;;5085314;28;20024;-77
2022/03/26 01:52:45;;;;;;;123.13;50.78;;;5.60;99.90;;;;;;5086240;28;20024;-76
2022/03/26 01:55:11;;;;;;;139.55;58.17;;;5.70;99.90;;;;;;5084485;28;20071;-74
2022/03/26 01:57:38;;;;;;;120.38;51.60;;;5.70;99.90;;;;;;5084873;28;20431;-73
2022/03/26 02:00:07;;;;;;;102.57;42.45;;;5.70;99.90;;;;;;5086100;28;20103;-75
2022/03/26 02:02:34;;;;;;;104.50;43.70;;;5.60;99.90;;;;;;5084704;28;20029;-75
2022/03/26 02:05:00;;;;;;;123.10;45.17;;;5.70;99.90;;;;;;5084398;28;20024;-75
2022/03/26 02:07:26;;;;;;;106.50;41.88;;;5.60;99.90;;;;;;5068148;28;20027;-74
2022/03/26 02:09:51;;;;;;;103.30;37.60;;;5.60;99.90;;;;;;5084543;28;20103;-74
2022/03/26 02:12:28;;;;;;;87.93;35.47;;;5.60;99.90;;;;;;5084536;28;20111;-75
2022/03/26 02:14:56;;;;;;;83.05;36.40;;;5.50;99.90;;;;;;5067872;28;20024;-75
2022/03/26 02:17:22;;;;;;;76.32;33.03;;;5.60;99.90;;;;;;5068150;28;20410;-77
2022/03/26 02:19:53;;;;;;;72.00;30.25;;;5.60;99.90;;;;;;5084161;28;20052;-75
2022/03/26 02:22:20;;;;;;;74.50;30.55;;;5.70;99.90;;;;;;5084019;28;20437;-75
2022/03/26 02:24:46;;;;;;;72.63;31.90;;;5.70;99.90;;;;;;5086163;28;20012;-76
2022/03/26 02:27:12;;;;;;;65.93;29.77;;;5.70;99.90;;;;;;5083979;28;20477;-78
2022/03/26 02:29:38;;;;;;;68.70;30.05;;;5.70;99.90;;;;;;5084250;28;20036;-76
2022/03/26 02:32:05;;;;;;;65.78;31.08;;;5.60;99.90;;;;;;5085381;28;20028;-75
2022/03/26 02:34:31;;;;;;;74.53;30.92;;;5.60;99.90;;;;;;5083911;28;20055;-77
2022/03/26 02:36:58;;;;;;;71.05;31.38;;;5.70;99.90;;;;;;5083346;28;20051;-77
2022/03/26 02:39:25;;;;;;;63.45;30.77;;;5.60;99.90;;;;;;5085724;28;20032;-77
2022/03/26 02:41:51;;;;;;;80.70;35.88;;;5.60;99.90;;;;;;5083636;28;20024;-74
2022/03/26 02:44:17;;;;;;;66.30;31.98;;;5.60;99.90;;;;;;5066227;28;20020;-75
2022/03/26 02:46:45;;;;;;;76.10;33.05;;;5.60;99.90;;;;;;5085216;28;20024;-76
2022/03/26 02:49:12;;;;;;;86.85;35.80;;;5.50;99.90;;;;;;5083525;28;20468;-75
2022/03/26 02:51:39;;;;;;;78.00;33.45;;;5.50;99.90;;;;;;5083888;28;20060;-76
2022/03/26 02:54:05;;;;;;;79.55;33.78;;;5.50;99.90;;;;;;5085111;28;20740;-76
2022/03/26 02:56:31;;;;;;;81.90;36.05;;;5.40;99.90;;;;;;5083636;28;20451;-75
2022/03/26 02:58:57;;;;;;;88.88;36.20;;;5.30;99.90;;;;;;5084332;28;20020;-74
2022/03/26 03:01:23;;;;;;;90.78;36.58;;;5.40;99.90;;;;;;5084930;28;20402;-75
2022/03/26 03:03:52;;;;;;;93.00;32.53;;;5.30;99.90;;;;;;5083500;28;20016;-75
2022/03/26 03:06:17;;;;;;;88.72;32.67;;;5.30;99.90;;;;;;5083851;28;20055;-76
2022/03/26 03:08:43;;;;;;;86.75;32.33;;;5.30;99.90;;;;;;5085112;28;20370;-75
2022/03/26 03:11:09;;;;;;;74.63;32.78;;;5.20;99.90;;;;;;5064874;28;20128;-76
2022/03/26 03:13:36;;;;;;;84.88;35.13;;;5.20;99.90;;;;;;5083998;28;20469;-77
2022/03/26 03:16:01;;;;;;;79.32;33.40;;;5.10;99.90;;;;;;5084456;28;20035;-75
2022/03/26 03:18:27;;;;;;;86.07;34.05;;;5.00;99.90;;;;;;5082357;28;20025;-75
2022/03/26 03:20:53;;;;;;;81.88;34.80;;;5.00;99.90;;;;;;5083826;28;20024;-75
2022/03/26 03:23:19;;;;;;;89.70;33.70;;;4.90;99.90;;;;;;5065880;28;20107;-75
2022/03/26 03:25:45;;;;;;;89.15;35.92;;;4.90;99.90;;;;;;5082514;28;20031;-76
2022/03/26 03:28:10;;;;;;;98.43;34.75;;;4.90;99.90;;;;;;5084403;28;20031;-75
2022/03/26 03:30:36;;;;;;;85.88;34.92;;;4.90;99.90;;;;;;5083403;28;20128;-76
2022/03/26 03:33:02;;;;;;;77.78;34.05;;;4.90;99.90;;;;;;5082205;28;20065;-74
2022/03/26 03:35:28;;;;;;;92.88;35.83;;;4.80;99.90;;;;;;5084696;28;20020;-75
2022/03/26 03:37:54;;;;;;;80.00;34.03;;;4.80;99.90;;;;;;5079498;28;20366;-76
2022/03/26 03:40:19;;;;;;;90.30;37.83;;;4.80;99.90;;;;;;5074923;28;20453;-76
2022/03/26 03:42:46;;;;;;;90.38;35.67;;;4.60;99.90;;;;;;5074695;28;20040;-76
2022/03/26 03:45:12;;;;;;;93.18;33.40;;;4.50;99.90;;;;;;5056647;28;20467;-75
2022/03/26 03:47:38;;;;;;;88.72;32.63;;;4.50;99.90;;;;;;5073850;28;20379;-74
2022/03/26 03:50:05;;;;;;;70.10;31.67;;;4.50;99.90;;;;;;5074575;28;20025;-75
2022/03/26 03:52:31;;;;;;;74.22;31.10;;;4.30;99.90;;;;;;5056479;28;20490;-75
2022/03/26 03:54:57;;;;;;;77.32;31.80;;;4.40;99.90;;;;;;5074299;28;20032;-74
2022/03/26 03:57:23;;;;;;;69.47;31.65;;;4.30;99.90;;;;;;5074203;28;20032;-76
2022/03/26 03:59:48;;;;;;;69.80;32.20;;;4.30;99.90;;;;;;5056212;28;20024;-77
2022/03/26 04:02:14;;;;;;;67.70;30.33;;;4.30;99.90;;;;;;5074578;28;20038;-76
2022/03/26 04:04:42;;;;;;;83.18;32.55;;;4.20;99.90;;;;;;5056170;28;20115;-75
2022/03/26 04:07:08;;;;;;;78.82;32.63;;;4.20;99.90;;;;;;5056192;28;20477;-75
2022/03/26 04:09:35;;;;;;;64.45;29.58;;;4.20;99.90;;;;;;5073945;28;20024;-75
2022/03/26 04:12:01;;;;;;;58.88;27.20;;;4.20;99.90;;;;;;5073540;28;20112;-77
2022/03/26 04:14:28;;;;;;;52.40;23.73;;;4.20;99.90;;;;;;5056104;28;20510;-76
2022/03/26 04:16:53;;;;;;;54.75;22.20;;;4.20;99.90;;;;;;5074084;28;20103;-76
2022/03/26 04:19:19;;;;;;;54.85;23.25;;;4.10;99.90;;;;;;5073517;28;20099;-74
2022/03/26 04:21:46;;;;;;;45.03;20.90;;;4.10;99.90;;;;;;5073943;28;20086;-74
2022/03/26 04:24:12;;;;;;;44.88;21.35;;;4.00;99.90;;;;;;5073786;28;20023;-75
2022/03/26 04:26:37;;;;;;;51.05;20.95;;;4.00;99.90;;;;;;5055721;28;20071;-75
2022/03/26 04:29:04;;;;;;;46.35;19.27;;;3.90;99.90;;;;;;5073920;28;20029;-74
2022/03/26 04:31:29;;;;;;;53.50;21.33;;;3.90;99.90;;;;;;5073656;28;20036;-74
2022/03/26 04:33:56;;;;;;;51.47;19.98;;;3.80;99.90;;;;;;5073624;28;20028;-74
2022/03/26 04:36:22;;;;;;;63.63;25.70;;;3.80;99.90;;;;;;5073921;28;20021;-73
2022/03/26 04:38:48;;;;;;;63.70;27.08;;;3.70;99.90;;;;;;5073586;28;20039;-75
2022/03/26 04:41:14;;;;;;;75.30;26.50;;;3.80;99.90;;;;;;5073458;28;20032;-76
2022/03/26 04:43:40;;;;;;;64.20;25.10;;;3.80;99.90;;;;;;5073773;28;20082;-75
2022/03/26 04:46:06;;;;;;;55.88;23.25;;;3.80;99.90;;;;;;5055520;28;20356;-74
2022/03/26 04:48:32;;;;;;;55.33;21.27;;;3.90;99.90;;;;;;5073901;28;20021;-73
2022/03/26 04:50:58;;;;;;;49.10;19.75;;;3.80;99.90;;;;;;5073321;28;20028;-76
2022/03/26 04:53:23;;;;;;;46.10;18.63;;;3.80;99.90;;;;;;5073608;28;20059;-75
2022/03/26 04:55:49;;;;;;;48.95;19.08;;;3.90;99.90;;;;;;5055558;28;20067;-76
2022/03/26 04:58:15;;;;;;;45.70;18.30;;;4.00;99.90;;;;;;5073657;28;20115;-75
2022/03/26 05:00:41;;;;;;;46.78;21.42;;;4.00;99.90;;;;;;5076943;28;20032;-74
2022/03/26 05:03:08;;;;;;;43.30;19.13;;;4.00;99.90;;;;;;5077942;28;20060;-74
2022/03/26 05:05:34;;;;;;;49.80;18.95;;;4.10;99.90;;;;;;5077454;28;20028;-76
2022/03/26 05:07:59;;;;;;;46.20;18.83;;;4.10;99.90;;;;;;5077182;28;20051;-74
2022/03/26 05:10:29;;;;;;;49.00;19.75;;;4.20;99.90;;;;;;5076244;28;20522;-80
2022/03/26 05:12:56;;;;;;;38.20;19.13;;;4.20;99.90;;;;;;5075365;28;20025;-76
2022/03/26 05:15:24;;;;;;;37.33;18.48;;;4.30;99.90;;;;;;5057727;28;20029;-75
2022/03/26 05:17:51;;;;;;;39.53;17.52;;;4.20;99.90;;;;;;5076260;28;20056;-77
2022/03/26 05:20:18;;;;;;;36.53;17.83;;;4.20;99.90;;;;;;5076642;28;20073;-74
2022/03/26 05:22:46;;;;;;;39.28;17.38;;;4.20;99.90;;;;;;5076042;28;20459;-76
2022/03/26 05:25:13;;;;;;;38.75;17.63;;;4.20;99.90;;;;;;5076320;28;20029;-75
2022/03/26 05:27:47;;;;;;;34.85;17.02;;;4.30;99.90;;;;;;5077565;28;20033;-74
2022/03/26 05:30:13;;;;;;;40.05;17.70;;;4.30;99.90;;;;;;5077317;28;20055;-74
2022/03/26 05:32:39;;;;;;;41.25;16.98;;;4.30;99.90;;;;;;5077017;28;20116;-73
2022/03/26 05:35:11;;;;;;;47.72;17.58;;;4.40;99.90;;;;;;5058971;28;20025;-74
2022/03/26 05:37:38;;;;;;;69.75;29.92;;;4.60;99.90;;;;;;5077137;28;20472;-75
2022/03/26 05:40:05;;;;;;;92.68;40.92;;;4.70;99.90;;;;;;5058917;28;20029;-76
2022/03/26 05:42:31;;;;;;;96.60;43.20;;;4.80;99.90;;;;;;5076401;28;20119;-77
2022/03/26 05:44:57;;;;;;;61.15;27.98;;;4.90;99.90;;;;;;5076816;28;20075;-74
2022/03/26 05:47:26;;;;;;;40.70;20.50;;;5.00;99.90;;;;;;5076883;28;20115;-75
2022/03/26 05:49:51;;;;;;;47.08;19.52;;;5.20;99.90;;;;;;5058673;28;20471;-75
2022/03/26 05:52:17;;;;;;;43.22;19.67;;;5.30;99.90;;;;;;5076767;28;20031;-74
2022/03/26 05:54:43;;;;;;;42.22;18.42;;;5.40;99.90;;;;;;5076794;28;20078;-76
2022/03/26 05:57:09;;;;;;;42.67;19.08;;;5.50;99.90;;;;;;5076497;28;20020;-75
2022/03/26 05:59:35;;;;;;;41.22;19.52;;;5.60;99.90;;;;;;5076362;28;20025;-75
2022/03/26 06:02:01;;;;;;;42.05;19.02;;;5.80;99.90;;;;;;5076949;28;20427;-75
2022/03/26 06:04:28;;;;;;;40.22;18.63;;;6.00;99.90;;;;;;5076370;28;20024;-76
2022/03/26 06:06:54;;;;;;;48.08;18.42;;;6.10;99.90;;;;;;5058488;28;20107;-76
2022/03/26 06:09:20;;;;;;;37.70;19.38;;;6.20;99.90;;;;;;5076642;28;20116;-77
2022/03/26 06:11:46;;;;;;;42.15;19.65;;;6.40;99.90;;;;;;5075060;28;20024;-76
2022/03/26 06:14:12;;;;;;;41.20;18.42;;;6.60;99.90;;;;;;5058358;28;20028;-76
2022/03/26 06:16:37;;;;;;;56.50;23.02;;;6.80;99.90;;;;;;5058546;28;20033;-76
2022/03/26 06:19:03;;;;;;;65.53;30.67;;;6.90;99.90;;;;;;5075833;28;20052;-76
2022/03/26 06:21:29;;;;;;;51.13;22.00;;;7.20;99.90;;;;;;5076201;28;20028;-76
2022/03/26 06:23:58;;;;;;;40.22;20.67;;;7.40;99.90;;;;;;5057758;28;20036;-76
2022/03/26 06:26:27;;;;;;;38.65;18.77;;;7.60;99.90;;;;;;5075944;28;20029;-75
2022/03/26 06:28:53;;;;;;;36.63;17.90;;;7.70;99.90;;;;;;5075545;28;20379;-75
2022/03/26 06:31:19;;;;;;;38.22;18.52;;;7.80;99.90;;;;;;5075837;28;20040;-76
2022/03/26 06:33:45;;;;;;;40.22;20.33;;;8.10;99.90;;;;;;5075935;28;20074;-77
2022/03/26 06:36:13;;;;;;;46.80;21.13;;;8.20;99.50;;;;;;5075766;28;20383;-76
2022/03/26 06:38:41;;;;;;;44.22;23.42;;;8.40;98.80;;;;;;5075742;28;20028;-76
2022/03/26 06:41:09;;;;;;;46.17;22.83;;;8.70;98.00;;;;;;5075841;28;20064;-77
2022/03/26 06:43:37;;;;;;;50.83;21.50;;;8.90;96.20;;;;;;5075910;28;20111;-73
2022/03/26 06:46:03;;;;;;;45.10;21.95;;;9.10;96.70;;;;;;5075590;28;20032;-77
2022/03/26 06:48:30;;;;;;;47.22;22.30;;;9.20;92.70;;;;;;5057675;28;20024;-74
2022/03/26 06:50:57;;;;;;;46.08;21.65;;;9.40;92.50;;;;;;5075300;28;20375;-76
2022/03/26 06:53:22;;;;;;;47.42;22.85;;;9.60;92.40;;;;;;5075478;28;20074;-76
2022/03/26 06:55:48;;;;;;;54.30;24.30;;;9.70;92.50;;;;;;5057527;28;20032;-75
2022/03/26 06:58:14;;;;;;;45.28;23.15;;;9.90;92.80;;;;;;5075525;28;20025;-75
2022/03/26 07:00:40;;;;;;;53.35;26.83;;;10.10;90.80;;;;;;5075071;28;20021;-74
2022/03/26 07:03:06;;;;;;;59.72;27.30;;;10.40;91.80;;;;;;5075384;28;20036;-75
2022/03/26 07:05:32;;;;;;;43.30;23.30;;;10.40;90.50;;;;;;5057895;28;20024;-75
2022/03/26 07:07:57;;;;;;;46.15;22.85;;;10.70;86.10;;;;;;5057279;28;20025;-77
2022/03/26 07:10:23;;;;;;;46.30;22.05;;;10.90;81.70;;;;;;5075240;28;20048;-75
2022/03/26 07:12:49;;;;;;;49.83;21.38;;;11.00;79.10;;;;;;5074746;28;20024;-76
2022/03/26 07:15:15;;;;;;;43.38;22.45;;;11.20;80.20;;;;;;5075248;28;20477;-75
2022/03/26 07:17:44;;;;;;;46.83;22.48;;;11.40;79.10;;;;;;5057132;28;20024;-77
2022/03/26 07:20:11;;;;;;;40.38;19.88;;;11.60;76.90;;;;;;5074965;28;20113;-76
2022/03/26 07:22:38;;;;;;;41.30;20.55;;;12.00;75.30;;;;;;5056926;28;20028;-76
2022/03/26 07:25:04;;;;;;;42.13;18.83;;;12.10;74.30;;;;;;5057010;28;20025;-78
2022/03/26 07:27:34;;;;;;;41.55;19.08;;;12.20;71.70;;;;;;5056815;28;20028;-76
2022/03/26 07:30:00;;;;;;;45.50;18.63;;;12.60;70.70;;;;;;5074924;28;20048;-77
2022/03/26 07:32:27;;;;;;;42.92;18.60;;;12.80;69.30;;;;;;5074548;28;20029;-76
2022/03/26 07:34:53;;;;;;;40.97;17.40;;;13.10;67.70;;;;;;5074495;28;20040;-76
2022/03/26 07:37:20;;;;;;;40.05;16.08;;;13.30;66.90;;;;;;5074449;28;20024;-77
2022/03/26 07:39:45;;;;;;;34.00;15.18;;;13.60;66.40;;;;;;5075062;28;20452;-75
2022/03/26 07:42:11;;;;;;;37.30;17.27;;;13.90;64.10;;;;;;5056531;28;20037;-75
2022/03/26 07:44:37;;;;;;;45.60;16.38;;;14.20;63.80;;;;;;5074545;28;20027;-77
2022/03/26 07:47:03;;;;;;;37.30;15.18;;;14.50;63.80;;;;;;5074553;28;20028;-76
2022/03/26 07:49:29;;;;;;;34.90;14.60;;;14.60;60.90;;;;;;5056428;28;20392;-77
2022/03/26 07:51:55;;;;;;;115.03;52.92;;;14.90;61.60;;;;;;5074162;28;20479;-77
2022/03/26 07:54:21;;;;;;;40.20;16.23;;;15.10;58.60;;;;;;5074498;28;20035;-76
2022/03/26 07:56:47;;;;;;;36.22;15.95;;;15.10;58.80;;;;;;5074017;28;20028;-75
2022/03/26 07:59:13;;;;;;;62.58;27.05;;;15.60;59.40;;;;;;5056214;28;20021;-76
2022/03/26 08:01:38;;;;;;;37.83;14.25;;;15.70;56.10;;;;;;5073883;28;20039;-75
2022/03/26 08:04:04;;;;;;;23.15;12.10;;;16.00;57.00;;;;;;5073684;28;20099;-76
2022/03/26 08:06:30;;;;;;;29.25;13.63;;;16.30;55.60;;;;;;5073955;28;20109;-76
2022/03/26 08:08:56;;;;;;;30.02;14.02;;;16.50;54.10;;;;;;5074016;28;20061;-75
2022/03/26 08:11:22;;;;;;;25.27;13.25;;;16.80;52.40;;;;;;5074114;28;20540;-76
2022/03/26 08:13:47;;;;;;;29.15;13.98;;;16.80;52.20;;;;;;5073998;28;20032;-75
2022/03/26 08:16:13;;;;;;;33.92;16.35;;;17.20;52.50;;;;;;5073861;28;20550;-77
2022/03/26 08:18:40;;;;;;;23.75;14.07;;;17.40;52.20;;;;;;5073928;28;20375;-77
2022/03/26 08:21:06;;;;;;;29.42;12.73;;;17.50;50.70;;;;;;5074325;28;20497;-75
2022/03/26 08:23:32;;;;;;;24.23;12.30;;;17.80;50.00;;;;;;5073466;28;20116;-77
2022/03/26 08:28:42;;;;;;;22.83;10.32;;;18.00;48.10;;;;;;5074035;28;20035;-75
2022/03/26 08:31:10;;;;;;;28.55;12.25;;;18.20;47.30;;;;;;5073309;28;20045;-76
2022/03/26 08:33:45;;;;;;;27.10;11.95;;;18.40;47.50;;;;;;5073310;28;20029;-74
2022/03/26 08:36:12;;;;;;;27.63;11.88;;;18.60;46.10;;;;;;5072874;28;20048;-75
2022/03/26 08:38:38;;;;;;;19.50;9.82;;;18.70;45.50;;;;;;5071957;28;20082;-75
2022/03/26 08:41:04;;;;;;;22.55;9.82;;;18.70;44.20;;;;;;5072420;28;20032;-74
2022/03/26 08:43:30;;;;;;;23.23;11.05;;;19.10;44.20;;;;;;5073797;28;20063;-75
2022/03/26 08:45:56;;;;;;;35.30;20.67;;;19.10;43.00;;;;;;5073842;28;20086;-75
2022/03/26 08:48:22;;;;;;;30.33;18.65;;;19.40;43.60;;;;;;5073398;28;20029;-73
2022/03/26 08:50:49;;;;;;;22.42;10.15;;;19.90;42.30;;;;;;5073721;28;20048;-75
2022/03/26 08:53:14;;;;;;;31.50;9.60;;;19.80;39.50;;;;;;5072737;28;20029;-75
2022/03/26 08:55:41;;;;;;;27.98;9.20;;;20.00;39.40;;;;;;5071966;28;20073;-77
2022/03/26 08:58:07;;;;;;;24.95;9.48;;;19.70;39.20;;;;;;5073026;28;20029;-75
2022/03/26 09:00:34;;;;;;;23.73;10.40;;;20.00;38.90;;;;;;5072965;28;20146;-76
2022/03/26 09:03:00;;;;;;;18.77;8.90;;;20.30;38.80;;;;;;5073552;28;20036;-76
2022/03/26 09:05:27;;;;;;;19.77;10.18;;;20.40;39.20;;;;;;5073428;28;20028;-75
2022/03/26 09:07:53;;;;;;;22.40;11.18;;;20.30;38.80;;;;;;5073151;28;20490;-75
2022/03/26 09:10:19;;;;;;;27.92;10.70;;;20.70;39.00;;;;;;5055531;28;20032;-75
2022/03/26 09:12:45;;;;;;;19.00;10.38;;;20.80;37.90;;;;;;5055192;28;20037;-75
2022/03/26 09:15:10;;;;;;;18.98;10.45;;;20.90;36.80;;;;;;5073072;28;20025;-75
2022/03/26 09:17:37;;;;;;;23.67;8.15;;;21.10;36.60;;;;;;5073162;28;20031;-76
2022/03/26 09:20:06;;;;;;;23.08;10.75;;;21.20;36.70;;;;;;5073416;28;20021;-75
2022/03/26 09:22:33;;;;;;;17.15;10.32;;;21.40;34.70;;;;;;5073040;28;20070;-75
2022/03/26 09:24:59;;;;;;;30.13;12.40;;;21.80;35.60;;;;;;5073080;28;20032;-75
2022/03/26 09:27:25;;;;;;;18.83;10.45;;;22.00;33.10;;;;;;5072852;28;20025;-75
2022/03/26 09:29:51;;;;;;;25.80;12.82;;;22.00;31.30;;;;;;5055103;28;20052;-74
2022/03/26 09:32:17;;;;;;;22.65;11.50;;;22.10;32.50;;;;;;5073392;28;20081;-75
2022/03/26 09:34:43;;;;;;;16.00;9.55;;;22.40;33.20;;;;;;5072853;28;20391;-74
2022/03/26 09:37:09;;;;;;;18.77;11.00;;;22.40;32.70;;;;;;5073138;28;20025;-74
2022/03/26 09:39:35;;;;;;;19.77;10.77;;;22.00;30.70;;;;;;5073277;28;20374;-75
2022/03/26 09:42:02;;;;;;;20.58;10.88;;;22.30;31.60;;;;;;5054727;28;20033;-75
2022/03/26 09:44:28;;;;;;;21.77;12.48;;;22.00;30.90;;;;;;5073054;28;20447;-73
2022/03/26 09:46:54;;;;;;;23.65;13.07;;;22.40;31.20;;;;;;5076386;28;20025;-75
2022/03/26 09:49:20;;;;;;;24.67;15.20;;;22.40;29.30;;;;;;5076918;28;20032;-73
2022/03/26 09:51:51;;;;;;;21.75;15.00;;;22.50;32.10;;;;;;5076676;28;20101;-75
2022/03/26 09:54:17;;;;;;;37.20;23.73;;;22.60;30.30;;;;;;5076948;28;20020;-74
2022/03/26 09:56:44;;;;;;;21.50;12.10;;;22.70;30.00;;;;;;5076904;28;20108;-73
2022/03/26 09:59:10;;;;;;;27.17;12.55;;;22.60;30.10;;;;;;5076656;28;20493;-72
2022/03/26 10:01:36;;;;;;;20.95;9.95;;;22.90;30.10;;;;;;5076486;28;20033;-73
2022/03/26 10:04:09;;;;;;;17.52;10.38;;;23.20;28.70;;;;;;5076543;28;20513;-75
2022/03/26 10:06:35;;;;;;;25.10;11.00;;;23.40;28.10;;;;;;5076545;28;20352;-76
2022/03/26 10:09:01;;;;;;;20.25;10.65;;;;;;;;;;5076029;28;20463;-73
2022/03/26 10:11:32;;;;;;;18.48;10.48;;;23.60;28.00;;;;;;5076637;28;20130;-76
2022/03/26 10:13:59;;;;;;;20.33;10.50;;;23.60;28.30;;;;;;5076231;28;20060;-74
2022/03/26 10:16:25;;;;;;;22.95;11.65;;;23.80;27.90;;;;;;5075902;28;20459;-73
2022/03/26 10:18:52;;;;;;;23.60;12.27;;;;;;;;;;5076097;28;20103;-76
2022/03/26 10:21:19;;;;;;;17.38;11.10;;;;;;;;;;5076564;28;20482;-74
2022/03/26 10:23:53;;;;;;;18.67;11.07;;;24.00;27.20;;;;;;5075796;28;20096;-72
2022/03/26 10:26:21;;;;;;;24.17;12.40;;;23.90;27.60;;;;;;5058062;28;20419;-73
2022/03/26 10:28:58;;;;;;;16.42;10.23;;;23.80;27.30;;;;;;5075985;28;20025;-72
2022/03/26 10:34:19;;;;;;;14.20;10.30;;;24.10;28.70;;;;;;5075903;28;20501;-73
2022/03/26 10:36:47;;;;;;;20.55;10.65;;;;;;;;;;5076075;28;20074;-74
2022/03/26 10:39:27;;;;;;;18.33;11.18;;;24.40;27.50;;;;;;5058238;28;20046;-73
2022/03/26 10:41:54;;;;;;;18.33;9.02;;;;;;;;;;5087154;28;20024;-73
2022/03/26 10:44:23;;;;;;;16.95;8.02;;;;;;;;;;5096004;28;20020;-74
2022/03/26 10:46:56;;;;;;;15.80;8.75;;;;;;;;;;5094597;28;20024;-73
2022/03/26 10:49:30;;;;;;;25.63;9.80;;;24.30;26.60;;;;;;5077879;28;20373;-74
2022/03/26 10:52:03;;;;;;;17.38;9.10;;;24.10;27.80;;;;;;5095654;28;20454;-75
2022/03/26 10:54:31;;;;;;;15.90;9.93;;;24.10;27.30;;;;;;5095537;28;20351;-72
2022/03/26 10:57:02;;;;;;;15.88;9.63;;;24.40;26.50;;;;;;5094261;28;20020;-72
2022/03/26 10:59:29;;;;;;;16.63;9.90;;;24.20;25.90;;;;;;5077349;28;20028;-75
2022/03/26 11:01:56;;;;;;;15.15;9.77;;;24.10;26.80;;;;;;5095866;28;20050;-75
2022/03/26 11:04:22;;;;;;;15.35;9.02;;;;;;;;;;5076556;28;20024;-73
2022/03/26 11:06:49;;;;;;;15.77;9.57;;;;;;;;;;5095113;28;20026;-74
2022/03/26 11:09:16;;;;;;;14.98;9.23;;;;;;;;;;5095652;28;20085;-74
2022/03/26 11:11:46;;;;;;;17.10;9.40;;;;;;;;;;5095019;28;20028;-74
2022/03/26 11:14:18;;;;;;;16.83;8.80;;;;;;;;;;5077286;28;20031;-73
2022/03/26 11:16:55;;;;;;;18.08;10.20;;;;;;;;;;5095461;28;20100;-75
2022/03/26 11:19:22;;;;;;;24.58;8.95;;;;;;;;;;5095334;28;20020;-72
2022/03/26 11:22:07;;;;;;;17.75;9.77;;;;;;;;;;5095252;28;20463;-72
2022/03/26 11:25:07;;;;;;;22.42;11.75;;;25.00;25.00;;;;;;5095460;28;20020;-74
2022/03/26 11:27:33;;;;;;;14.38;8.15;;;;;;;;;;5095340;28;20032;-74
2022/03/26 11:30:04;;;;;;;20.15;7.68;;;25.60;24.60;;;;;;5094887;28;20059;-72
2022/03/26 11:32:37;;;;;;;13.37;8.13;;;25.80;25.00;;;;;;5076960;28;20032;-73
2022/03/26 11:35:16;;;;;;;16.08;8.98;;;26.00;24.10;;;;;;5095064;28;20078;-74
2022/03/26 11:37:56;;;;;;;14.35;8.10;;;;;;;;;;5095208;28;20025;-73
2022/03/26 11:40:43;;;;;;;20.83;8.68;;;;;;;;;;5094861;28;20081;-75
2022/03/26 11:43:09;;;;;;;18.33;8.88;;;;;;;;;;5094908;28;20424;-74
2022/03/26 11:51:25;;;;;;;11.55;7.53;;;;;;;;;;5094848;28;20104;-73
2022/03/26 11:54:06;;;;;;;15.77;8.55;;;;;;;;;;5076350;28;20158;-74
2022/03/26 11:56:34;;;;;;;9.73;7.15;;;;;;;;;;5094685;28;20023;-73
2022/03/26 11:59:05;;;;;;;11.85;6.38;;;26.00;23.40;;;;;;5094730;28;20047;-74
2022/03/26 12:01:35;;;;;;;12.50;6.80;;;;;;;;;;5094617;28;20036;-73
2022/03/26 12:04:11;;;;;;;19.45;9.68;;;25.40;22.30;;;;;;5094287;28;20017;-75
2022/03/26 12:06:51;;;;;;;29.65;14.52;;;24.40;22.20;;;;;;5094925;28;20024;-74
2022/03/26 12:09:33;;;;;;;9.38;6.13;;;25.50;23.40;;;;;;5093728;28;20028;-73
2022/03/26 12:12:06;;;;;;;12.85;6.45;;;;;;;;;;5094341;28;20036;-73
2022/03/26 12:14:32;;;;;;;12.52;6.97;;;;;;;;;;5094273;28;20017;-72
2022/03/26 12:16:58;;;;;;;9.13;6.72;;;25.50;22.20;;;;;;5094305;28;20024;-76
2022/03/26 12:19:37;;;;;;;14.10;6.95;;;;;;;;;;5076202;28;20031;-74
2022/03/26 12:22:32;;;;;;;12.43;6.63;;;25.40;67.80;;;;;;5094059;28;20024;-73
2022/03/26 12:25:03;;;;;;;15.80;7.53;;;;;;;;;;5091864;28;20040;-74
2022/03/26 12:27:29;;;;;;;9.43;6.43;;;25.20;23.40;;;;;;5094111;28;20488;-73
2022/03/26 12:29:56;;;;;;;12.07;6.85;;;;;;;;;;5093615;28;20119;-73
2022/03/26 12:32:30;;;;;;;14.30;6.93;;;25.70;22.40;;;;;;5094120;28;20034;-74
2022/03/26 12:35:01;;;;;;;19.65;6.82;;;25.60;22.10;;;;;;5075845;28;20106;-74
2022/03/26 12:37:28;;;;;;;15.20;6.70;;;;;;;;;;5094253;28;20020;-73
2022/03/26 12:39:54;;;;;;;26.60;15.88;;;28.40;23.90;;;;;;5094006;28;20027;-73
2022/03/26 12:42:20;;;;;;;14.00;7.95;;;25.00;21.60;;;;;;5093945;28;20038;-72
2022/03/26 12:44:46;;;;;;;11.55;7.15;;;;;;;;;;5094006;28;20451;-75
2022/03/26 12:47:17;;;;;;;14.15;9.23;;;25.00;23.50;;;;;;5093724;28;20546;-74
2022/03/26 12:49:45;;;;;;;16.60;7.22;;;25.10;23.40;;;;;;5094027;28;20020;-74
2022/03/26 12:52:11;;;;;;;22.17;13.25;;;;;;;;;;5075615;28;20455;-74
2022/03/26 12:54:37;;;;;;;16.15;8.07;;;25.20;22.30;;;;;;5093973;28;20020;-72